パース の空港の天気 - METARとTAF

パース空港 ( YPPH / PER ) - オーストラリア 西オーストラリア州パース
飛行場実況気象(Metar)
観測時間08/23 00:30 AWST (08/22 16:30 UTC)
風向・風速南西 4m/s
視程6000m
天気現象弱い雨
少しの雲 雲底高度 550m
全天の4割程度の雲 雲底高度 1340m
全天を覆う雲 雲底高度 1830m
気温13℃
湿度88%
気圧1017hPa
METARYPPH 221630Z 23008KT 6000 -RA FEW018 SCT044 OVC060 13/11 Q1017 FM1630 23012KT 9999 -SHRA BKN011 BKN020 FM1800 22010KT 9999 -SHRA SCT012 BKN020 INTER 1630/1800 3000 SHRA BKN009 INTER 1800/1930 5000 SHRA BKN018
過去の天気等 Google飛行場航空写真 Wunderground天気予報

過去48時間のMETAR

飛行場予報(TAF)
発表時間: 8/22 23:06 AWST (8/22 15:06 UTC)
予報対象時間: 22日23時 AWST ~ 24日2時 AWST
風向・風速南西 5m/s
視程10km以上
天気現象弱いしゅう雨
全天の8割程度の雲 雲底高度 340m
全天の8割程度の雲 雲底高度 610m
23日2時 AWST から
風向・風速南西 5m/s
視程10km以上
天気現象弱いしゅう雨
全天の4割程度の雲 雲底高度 370m
全天の8割程度の雲 雲底高度 610m
23日9時 AWST から
風向・風速南南西 6m/s
視程10km以上
天気現象弱いしゅう雨
全天の8割程度の雲 雲底高度 910m
TAF AMD YPPH 221506Z 2215/2318 23010KT 9999 -SHRA BKN011 BKN020
FM221800 22010KT 9999 -SHRA SCT012 BKN020
FM230100 20012KT 9999 -SHRA BKN030 INTER 2215/2218 3000 SHRA BKN009 INTER 2218/2303 5000 SHRA BKN020